createdAt,value
2023-09-28T00:02:48.026Z,20.90
2023-09-28T00:06:25.268Z,21.90
2023-09-28T00:10:04.910Z,23.40
2023-09-28T00:13:40.598Z,21.20
2023-09-28T00:17:18.642Z,23.50
2023-09-28T00:20:56.408Z,24.80
2023-09-28T00:24:33.982Z,23.60
2023-09-28T00:28:12.100Z,23.40
2023-09-28T00:31:49.957Z,23.60
2023-09-28T00:35:28.430Z,23.60
2023-09-28T00:39:06.849Z,25.10
2023-09-28T00:42:43.125Z,23.30
2023-09-28T00:46:20.765Z,22.00
2023-09-28T00:49:58.479Z,24.00
2023-09-28T00:53:36.238Z,24.40
2023-09-28T00:57:15.272Z,24.10
2023-09-28T01:00:51.770Z,23.90
2023-09-28T01:04:29.453Z,25.70
2023-09-28T01:08:14.139Z,25.70
2023-09-28T01:11:44.959Z,23.80
2023-09-28T01:15:23.688Z,27.10
2023-09-28T01:19:00.676Z,26.40
2023-09-28T01:22:38.193Z,28.50
2023-09-28T01:26:15.918Z,27.00
2023-09-28T01:29:53.684Z,24.50
2023-09-28T01:33:31.608Z,23.40
2023-09-28T01:37:10.425Z,27.30
2023-09-28T01:40:48.615Z,25.90
2023-09-28T01:44:24.714Z,26.40
2023-09-28T01:48:04.509Z,26.90
2023-09-28T01:51:40.018Z,27.60
2023-09-28T01:55:17.917Z,30.60
2023-09-28T01:58:55.742Z,24.80
2023-09-28T02:02:35.975Z,27.60
2023-09-28T02:06:11.120Z,27.20
2023-09-28T02:09:48.946Z,27.10
2023-09-28T02:13:26.754Z,25.90
2023-09-28T02:17:42.571Z,31.20
2023-09-28T02:20:59.316Z,28.50
2023-09-28T02:24:36.054Z,27.40
2023-09-28T02:28:13.610Z,30.80
2023-09-28T02:31:51.430Z,31.30
2023-09-28T02:35:30.310Z,29.70
2023-09-28T02:39:08.527Z,29.70
2023-09-28T02:42:44.985Z,30.80
2023-09-28T02:46:22.542Z,29.20
2023-09-28T02:50:00.278Z,30.90
2023-09-28T02:53:38.299Z,29.30
2023-09-28T02:57:15.903Z,30.20
2023-09-28T03:00:58.364Z,30.10
2023-09-28T03:04:35.236Z,31.40
2023-09-28T03:08:10.791Z,32.40
2023-09-28T03:11:47.243Z,33.40
2023-09-28T03:15:24.656Z,32.20
2023-09-28T03:19:03.515Z,31.60
2023-09-28T03:22:39.981Z,32.00
2023-09-28T03:26:17.777Z,33.40
2023-09-28T03:29:55.551Z,33.70
2023-09-28T03:33:33.143Z,34.70
2023-09-28T03:37:11.667Z,32.90
2023-09-28T03:40:49.090Z,33.00
2023-09-28T03:44:28.299Z,38.30
2023-09-28T03:48:04.665Z,38.10
2023-09-28T03:51:42.094Z,34.20
2023-09-28T03:55:24.996Z,33.70
2023-09-28T03:58:58.242Z,35.50
2023-09-28T04:02:35.259Z,38.20
2023-09-28T04:06:13.194Z,35.60
2023-09-28T04:09:51.433Z,34.10
2023-09-28T04:13:28.601Z,35.20
2023-09-28T04:17:06.427Z,39.60
2023-09-28T04:20:44.661Z,36.10
2023-09-28T04:24:21.969Z,34.70
2023-09-28T04:27:59.933Z,35.20
2023-09-28T04:31:37.563Z,36.30
2023-09-28T04:35:15.839Z,37.50
2023-09-28T04:38:53.250Z,36.50
2023-09-28T04:42:30.856Z,38.30
2023-09-28T04:46:08.678Z,34.90
2023-09-28T04:49:47.143Z,36.60
2023-09-28T04:53:24.293Z,34.50
2023-09-28T04:57:01.972Z,36.20
2023-09-28T05:00:40.340Z,39.50
2023-09-28T05:04:17.555Z,40.40
2023-09-28T05:07:55.155Z,38.90
2023-09-28T05:11:33.212Z,36.60
2023-09-28T05:15:11.274Z,37.00
2023-09-28T05:18:48.416Z,42.00
2023-09-28T05:22:30.059Z,39.20
2023-09-28T05:26:05.629Z,39.20
2023-09-28T05:29:41.521Z,35.80
2023-09-28T05:33:19.945Z,37.30
2023-09-28T05:36:57.444Z,38.50
2023-09-28T05:40:34.898Z,41.30
2023-09-28T05:44:14.159Z,42.20
2023-09-28T05:47:50.503Z,42.10
2023-09-28T05:51:29.491Z,44.40
2023-09-28T05:55:07.086Z,45.40
2023-09-28T05:58:43.976Z,42.80
2023-09-28T06:02:24.088Z,45.20
2023-09-28T06:05:59.379Z,45.40
2023-09-28T06:09:40.677Z,44.60
2023-09-28T06:13:14.784Z,44.30
2023-09-28T06:16:52.531Z,46.50
2023-09-28T06:20:30.784Z,46.00
2023-09-28T06:24:08.787Z,47.00
2023-09-28T06:27:45.981Z,48.30
2023-09-28T06:31:23.651Z,50.80
2023-09-28T06:35:02.624Z,49.70
2023-09-28T06:38:39.253Z,46.70
2023-09-28T06:42:35.010Z,50.30
2023-09-28T06:46:13.876Z,45.50
2023-09-28T06:49:33.989Z,46.10
2023-09-28T06:53:14.205Z,49.20
2023-09-28T06:56:59.942Z,44.40
2023-09-28T07:00:25.772Z,44.80
2023-09-28T07:04:03.642Z,43.60
2023-09-28T07:07:43.275Z,41.20
2023-09-28T07:11:20.941Z,42.20
2023-09-28T07:14:56.686Z,47.40
2023-09-28T07:18:34.393Z,41.00
2023-09-28T07:22:13.222Z,43.30
2023-09-28T07:25:53.243Z,42.70
2023-09-28T07:29:28.734Z,38.60
2023-09-28T07:33:06.770Z,40.70
2023-09-28T07:36:43.432Z,36.30
2023-09-28T07:40:44.181Z,34.30
2023-09-28T07:43:59.989Z,33.30
2023-09-28T07:47:40.428Z,33.00
2023-09-28T07:51:15.465Z,30.90
2023-09-28T07:54:53.375Z,32.20
2023-09-28T07:58:32.498Z,28.70
2023-09-28T08:02:14.581Z,28.40
2023-09-28T08:05:48.739Z,28.50
2023-09-28T08:09:25.321Z,27.30
2023-09-28T08:13:02.103Z,25.10
2023-09-28T08:16:40.263Z,29.60
2023-09-28T08:20:18.459Z,27.60
2023-09-28T08:23:56.097Z,26.60
2023-09-28T08:27:33.225Z,25.00
2023-09-28T08:31:11.728Z,23.80
2023-09-28T08:34:48.531Z,27.30
2023-09-28T08:38:26.310Z,23.00
2023-09-28T08:42:07.298Z,23.40
2023-09-28T08:45:42.346Z,25.40
2023-09-28T08:49:20.251Z,19.80
2023-09-28T08:52:58.624Z,22.00
2023-09-28T08:56:42.054Z,21.90
2023-09-28T09:00:16.087Z,20.50
2023-09-28T09:03:51.763Z,22.70
2023-09-28T09:07:29.712Z,20.80
2023-09-28T09:11:10.486Z,20.10
2023-09-28T09:14:44.101Z,23.50
2023-09-28T09:18:23.309Z,16.50
2023-09-28T09:21:59.893Z,19.00
2023-09-28T09:25:55.090Z,17.80
2023-09-28T09:29:16.536Z,16.30
2023-09-28T09:32:53.288Z,15.70
2023-09-28T09:36:31.405Z,17.70
2023-09-28T09:40:15.396Z,17.20
2023-09-28T09:43:46.502Z,16.00
2023-09-28T09:47:26.862Z,15.50
2023-09-28T09:51:03.956Z,14.20
2023-09-28T09:54:40.184Z,11.90
2023-09-28T09:58:19.955Z,15.00
2023-09-28T10:01:55.396Z,12.40
2023-09-28T10:05:35.619Z,14.40
2023-09-28T10:09:12.191Z,13.00
2023-09-28T10:12:49.532Z,15.50
2023-09-28T10:16:28.961Z,13.90
2023-09-28T10:20:04.491Z,12.80
2023-09-28T10:23:42.020Z,13.90
2023-09-28T10:27:19.463Z,12.70
2023-09-28T10:31:06.298Z,12.90
2023-09-28T10:34:34.823Z,10.70
2023-09-28T10:38:18.667Z,15.20
2023-09-28T10:41:52.511Z,9.80
2023-09-28T10:45:28.651Z,12.20
2023-09-28T10:49:05.925Z,11.00
2023-09-28T10:52:43.957Z,12.30
2023-09-28T10:56:21.707Z,12.10
2023-09-28T11:00:04.817Z,10.90
2023-09-28T11:03:38.177Z,11.90
2023-09-28T11:07:15.505Z,13.80
2023-09-28T11:10:57.014Z,11.10
2023-09-28T11:14:30.321Z,10.70
2023-09-28T11:18:08.016Z,10.90
2023-09-28T11:21:46.722Z,11.10
2023-09-28T11:25:43.297Z,10.80
2023-09-28T11:29:01.656Z,12.60
2023-09-28T11:32:53.248Z,11.40
2023-09-28T11:36:22.137Z,13.40
2023-09-28T11:39:54.839Z,11.30
2023-09-28T11:43:58.467Z,11.00
2023-09-28T11:47:12.625Z,11.20
2023-09-28T11:50:51.533Z,11.80
2023-09-28T11:54:28.717Z,11.80
2023-09-28T11:58:11.335Z,9.60
2023-09-28T12:01:48.088Z,10.20
2023-09-28T12:05:22.482Z,10.30
2023-09-28T12:08:59.086Z,10.30
2023-09-28T12:12:38.263Z,11.10
2023-09-28T12:16:14.747Z,10.70
2023-09-28T12:19:52.443Z,10.00
2023-09-28T12:23:30.190Z,10.40
2023-09-28T12:27:08.472Z,9.50
2023-09-28T12:30:46.036Z,10.60
2023-09-28T12:34:26.645Z,10.00
2023-09-28T12:38:05.307Z,11.70
2023-09-28T12:41:39.124Z,12.80
2023-09-28T12:45:17.104Z,11.20
2023-09-28T12:48:56.849Z,11.30
2023-09-28T12:52:33.120Z,13.10
2023-09-28T12:56:10.931Z,10.30
2023-09-28T12:59:48.225Z,11.70
2023-09-28T13:03:25.733Z,9.40
2023-09-28T13:07:04.803Z,12.80
2023-09-28T13:10:41.430Z,10.00
2023-09-28T13:14:26.846Z,12.00
2023-09-28T13:17:56.683Z,8.50
2023-09-28T13:21:35.309Z,11.70
2023-09-28T13:25:15.096Z,11.30
2023-09-28T13:28:50.161Z,11.10
2023-09-28T13:32:29.225Z,9.30
2023-09-28T13:36:07.825Z,9.90
2023-09-28T13:39:43.276Z,11.20
2023-09-28T13:43:21.387Z,12.00
2023-09-28T13:46:58.684Z,10.00
2023-09-28T13:50:37.467Z,11.10
2023-09-28T13:54:16.139Z,10.90
2023-09-28T13:57:52.127Z,10.70
2023-09-28T14:01:31.286Z,9.80
2023-09-28T14:05:09.323Z,10.30
2023-09-28T14:08:45.998Z,9.70
2023-09-28T14:12:23.324Z,9.70
2023-09-28T14:16:00.876Z,10.20
2023-09-28T14:19:38.835Z,12.30
2023-09-28T14:23:18.425Z,8.80
2023-09-28T14:26:54.602Z,8.70
2023-09-28T14:30:32.533Z,12.70
2023-09-28T14:34:09.871Z,11.60
2023-09-28T14:37:48.184Z,12.10
2023-09-28T14:41:25.192Z,9.90
2023-09-28T14:45:03.082Z,11.90
2023-09-28T14:48:42.125Z,9.50
2023-09-28T14:52:18.745Z,12.10
2023-09-28T14:55:56.392Z,13.80
2023-09-28T14:59:35.510Z,11.70
2023-09-28T15:03:12.151Z,11.30
2023-09-28T15:06:49.557Z,11.80
2023-09-28T15:10:27.418Z,10.70
2023-09-28T15:14:05.239Z,10.70
2023-09-28T15:17:43.013Z,10.10
2023-09-28T15:21:22.749Z,13.20
2023-09-28T15:24:59.772Z,12.20
2023-09-28T15:28:37.880Z,12.40
2023-09-28T15:32:15.342Z,11.60
2023-09-28T15:35:53.511Z,11.90
2023-09-28T15:39:29.562Z,12.80
2023-09-28T15:43:07.783Z,12.30
2023-09-28T15:46:45.130Z,14.70
2023-09-28T15:50:22.881Z,12.00
2023-09-28T15:54:01.403Z,12.90
2023-09-28T15:57:38.398Z,14.30
2023-09-28T16:01:19.932Z,13.40
2023-09-28T16:04:56.773Z,12.20
2023-09-28T16:08:31.841Z,13.20
2023-09-28T16:12:09.921Z,11.20
2023-09-28T16:15:47.215Z,13.40
2023-09-28T16:19:25.326Z,12.30
2023-09-28T16:23:04.295Z,9.90
2023-09-28T16:26:41.119Z,10.60
2023-09-28T16:30:18.445Z,14.20
2023-09-28T16:33:58.706Z,14.20
2023-09-28T16:37:33.812Z,12.80
2023-09-28T16:41:25.550Z,12.30
2023-09-28T16:44:50.302Z,13.20
2023-09-28T16:48:27.343Z,15.50
2023-09-28T16:52:06.207Z,13.80
2023-09-28T16:55:42.799Z,12.10
2023-09-28T16:59:20.430Z,13.50
2023-09-28T17:02:58.356Z,13.20
2023-09-28T17:06:38.093Z,13.80
2023-09-28T17:10:17.680Z,12.40
2023-09-28T17:13:51.491Z,14.00
2023-09-28T17:17:29.426Z,14.60
2023-09-28T17:21:07.153Z,12.20
2023-09-28T17:24:44.824Z,16.40
2023-09-28T17:28:22.588Z,17.00
2023-09-28T17:32:19.550Z,17.20
2023-09-28T17:35:38.063Z,16.30
2023-09-28T17:39:16.084Z,16.80
2023-09-28T17:42:56.380Z,15.70
2023-09-28T17:46:31.431Z,18.70
2023-09-28T17:50:10.122Z,18.80
2023-09-28T17:53:50.267Z,14.20
2023-09-28T17:57:26.040Z,17.00
2023-09-28T18:01:05.252Z,16.00
2023-09-28T18:04:40.906Z,16.20
2023-09-28T18:08:18.665Z,16.30
2023-09-28T18:11:56.950Z,16.80
2023-09-28T18:15:38.017Z,17.10
2023-09-28T18:19:13.514Z,17.10
2023-09-28T18:22:48.717Z,15.70
2023-09-28T18:26:30.519Z,16.50
2023-09-28T18:30:09.887Z,13.90
2023-09-28T18:33:42.232Z,19.60
2023-09-28T18:37:19.836Z,20.10
2023-09-28T18:40:57.845Z,15.40
2023-09-28T18:44:36.072Z,15.30
2023-09-28T18:48:14.706Z,16.20
2023-09-28T18:51:53.204Z,17.30
2023-09-28T18:55:29.280Z,15.70
2023-09-28T18:59:11.116Z,18.10
2023-09-28T19:02:45.039Z,18.70
2023-09-28T19:06:24.660Z,18.90
2023-09-28T19:10:02.531Z,19.30
2023-09-28T19:13:39.552Z,20.20
2023-09-28T19:17:16.897Z,15.80
2023-09-28T19:20:54.955Z,18.70
2023-09-28T19:24:33.102Z,19.50
2023-09-28T19:28:10.624Z,18.10
2023-09-28T19:31:49.421Z,16.90
2023-09-28T19:35:26.409Z,16.50
2023-09-28T19:39:02.803Z,16.20
2023-09-28T19:42:44.188Z,19.20
2023-09-28T19:46:26.576Z,18.00
2023-09-28T19:49:58.349Z,15.20
2023-09-28T19:53:34.492Z,18.70
2023-09-28T19:57:17.538Z,15.60
2023-09-28T20:00:50.145Z,17.50
2023-09-28T20:04:27.549Z,17.10
2023-09-28T20:08:05.969Z,18.20
2023-09-28T20:11:44.603Z,16.00
2023-09-28T20:15:20.298Z,16.60
2023-09-28T20:18:57.608Z,15.00
2023-09-28T20:22:45.761Z,21.60
2023-09-28T20:26:12.810Z,18.90
2023-09-28T20:29:50.761Z,23.60
2023-09-28T20:33:28.409Z,19.10
2023-09-28T20:37:06.223Z,16.80
2023-09-28T20:40:43.826Z,20.80
2023-09-28T20:44:21.656Z,19.40
2023-09-28T20:48:02.709Z,22.70
2023-09-28T20:51:38.575Z,19.60
2023-09-28T20:55:15.242Z,20.20
2023-09-28T20:58:53.251Z,23.30
2023-09-28T21:02:31.093Z,25.20
2023-09-28T21:06:09.905Z,22.70
2023-09-28T21:09:46.205Z,21.10
2023-09-28T21:13:23.776Z,17.10
2023-09-28T21:17:26.259Z,19.90
2023-09-28T21:20:49.438Z,19.30
2023-09-28T21:24:26.423Z,18.50
2023-09-28T21:28:04.635Z,20.60
2023-09-28T21:31:42.014Z,19.80
2023-09-28T21:35:19.751Z,21.30
2023-09-28T21:38:57.842Z,20.70
2023-09-28T21:42:35.760Z,19.40
2023-09-28T21:46:13.077Z,20.20
2023-09-28T21:49:51.273Z,17.40
2023-09-28T21:53:29.219Z,21.80
2023-09-28T21:57:06.880Z,19.60
2023-09-28T22:00:44.379Z,19.90
2023-09-28T22:04:21.910Z,19.90
2023-09-28T22:08:00.007Z,20.10
2023-09-28T22:11:37.459Z,19.10
2023-09-28T22:15:15.137Z,19.70
2023-09-28T22:18:53.430Z,19.90
2023-09-28T22:22:30.600Z,20.00
2023-09-28T22:26:08.421Z,19.10
2023-09-28T22:29:46.329Z,20.60
2023-09-28T22:33:24.183Z,19.40
2023-09-28T22:37:04.288Z,19.40
2023-09-28T22:40:39.470Z,23.60
2023-09-28T22:44:17.411Z,21.10
2023-09-28T22:47:55.013Z,22.70
2023-09-28T22:51:32.694Z,21.30
2023-09-28T22:55:15.834Z,20.60
2023-09-28T22:58:48.199Z,21.70
2023-09-28T23:02:26.312Z,19.50
2023-09-28T23:06:07.616Z,20.40
2023-09-28T23:09:41.518Z,20.90
2023-09-28T23:13:19.119Z,22.00
2023-09-28T23:17:03.691Z,19.60
2023-09-28T23:20:36.220Z,24.70
2023-09-28T23:24:14.997Z,22.50
2023-09-28T23:27:51.269Z,21.60
2023-09-28T23:31:29.612Z,25.20
2023-09-28T23:35:07.293Z,23.30
2023-09-28T23:38:50.513Z,24.20
2023-09-28T23:42:21.108Z,24.80
2023-09-28T23:45:59.009Z,24.80
2023-09-28T23:49:36.676Z,21.70
2023-09-28T23:53:15.118Z,24.00
2023-09-28T23:56:52.415Z,21.70
